createdAt,value
2022-12-18T00:01:20.832Z,85.15
2022-12-18T00:03:47.943Z,85.14
2022-12-18T00:06:15.435Z,85.14
2022-12-18T00:08:42.875Z,85.01
2022-12-18T00:11:14.456Z,84.42
2022-12-18T00:13:41.914Z,83.96
2022-12-18T00:16:11.429Z,84.04
2022-12-18T00:18:38.539Z,83.97
2022-12-18T00:21:11.138Z,84.09
2022-12-18T00:23:39.011Z,84.20
2022-12-18T00:26:08.778Z,84.30
2022-12-18T00:28:35.167Z,84.35
2022-12-18T00:31:02.800Z,84.25
2022-12-18T00:33:29.495Z,83.90
2022-12-18T00:35:55.920Z,83.66
2022-12-18T00:38:22.324Z,83.35
2022-12-18T00:40:48.936Z,83.27
2022-12-18T00:43:15.322Z,83.42
2022-12-18T00:45:42.167Z,83.07
2022-12-18T00:48:08.531Z,83.07
2022-12-18T00:50:35.431Z,83.30
2022-12-18T00:53:01.965Z,83.45
2022-12-18T00:55:28.470Z,83.62
2022-12-18T01:00:36.824Z,83.38
2022-12-18T01:03:04.287Z,83.30
2022-12-18T01:05:31.035Z,83.07
2022-12-18T01:07:58.264Z,82.85
2022-12-18T01:10:25.959Z,83.03
2022-12-18T01:12:52.683Z,82.88
2022-12-18T01:15:19.826Z,82.71
2022-12-18T01:17:46.370Z,82.61
2022-12-18T01:20:13.756Z,82.37
2022-12-18T01:22:40.335Z,82.53
2022-12-18T01:25:07.055Z,82.47
2022-12-18T01:27:35.010Z,82.56
2022-12-18T01:30:10.214Z,82.60
2022-12-18T01:32:36.776Z,83.32
2022-12-18T01:35:03.800Z,83.34
2022-12-18T01:37:30.713Z,82.88
2022-12-18T01:39:57.302Z,82.61
2022-12-18T01:42:23.837Z,82.63
2022-12-18T01:45:13.354Z,82.67
2022-12-18T01:47:47.766Z,82.52
2022-12-18T01:50:23.824Z,82.67
2022-12-18T01:52:56.863Z,82.96
2022-12-18T01:55:26.691Z,83.18
2022-12-18T01:57:55.280Z,83.34
2022-12-18T02:00:23.885Z,82.75
2022-12-18T02:02:50.814Z,82.30
2022-12-18T02:05:30.306Z,82.03
2022-12-18T02:08:22.721Z,82.20
2022-12-18T02:11:05.963Z,82.41
2022-12-18T02:13:59.004Z,82.53
2022-12-18T02:16:38.435Z,82.62
2022-12-18T02:19:31.077Z,82.57
2022-12-18T02:22:27.468Z,82.73
2022-12-18T02:25:31.993Z,82.93
2022-12-18T02:28:02.835Z,82.89
2022-12-18T02:30:35.197Z,83.03
2022-12-18T02:33:05.355Z,83.05
2022-12-18T02:35:35.128Z,83.66
2022-12-18T02:38:04.160Z,83.81
2022-12-18T02:40:31.307Z,84.14
2022-12-18T02:43:10.806Z,84.40
2022-12-18T02:45:48.003Z,84.59
2022-12-18T02:48:14.695Z,84.96
2022-12-18T02:50:53.035Z,85.10
2022-12-18T02:53:34.963Z,85.25
2022-12-18T02:56:04.364Z,85.09
2022-12-18T02:58:42.902Z,85.17
2022-12-18T03:01:39.116Z,85.27
2022-12-18T03:04:13.260Z,85.24
2022-12-18T03:06:52.341Z,85.24
2022-12-18T03:09:41.451Z,85.55
2022-12-18T03:12:36.702Z,85.87
2022-12-18T03:15:19.935Z,85.88
2022-12-18T03:17:53.629Z,85.55
2022-12-18T03:20:23.160Z,85.70
2022-12-18T03:22:55.467Z,85.65
2022-12-18T03:25:23.493Z,85.70
2022-12-18T03:27:56.032Z,85.64
2022-12-18T03:30:22.624Z,85.59
2022-12-18T03:33:20.340Z,85.67
2022-12-18T03:35:47.640Z,85.75
2022-12-18T03:38:14.782Z,85.67
2022-12-18T03:40:59.391Z,85.91
2022-12-18T03:44:00.720Z,86.27
2022-12-18T03:46:36.340Z,86.19
2022-12-18T03:49:12.486Z,86.60
2022-12-18T03:51:46.558Z,86.55
2022-12-18T03:54:14.177Z,86.25
2022-12-18T03:56:44.825Z,86.09
2022-12-18T03:59:14.180Z,85.99
2022-12-18T04:01:44.486Z,86.03
2022-12-18T04:04:13.938Z,86.10
2022-12-18T04:06:43.049Z,86.07
2022-12-18T04:09:09.857Z,85.75
2022-12-18T04:11:36.618Z,85.66
2022-12-18T04:14:07.070Z,85.87
2022-12-18T04:16:34.088Z,86.02
2022-12-18T04:19:00.582Z,86.05
2022-12-18T04:21:27.100Z,86.02
2022-12-18T04:23:53.592Z,86.08
2022-12-18T04:26:20.134Z,86.20
2022-12-18T04:28:46.672Z,86.20
2022-12-18T04:31:13.941Z,86.44
2022-12-18T04:33:41.135Z,86.45
2022-12-18T04:36:08.538Z,86.30
2022-12-18T04:38:35.353Z,85.99
2022-12-18T04:41:01.871Z,86.00
2022-12-18T04:43:28.419Z,85.90
2022-12-18T04:45:54.980Z,85.94
2022-12-18T04:48:21.792Z,85.78
2022-12-18T04:50:49.004Z,85.66
2022-12-18T04:53:15.549Z,85.77
2022-12-18T04:55:42.333Z,85.92
2022-12-18T04:58:08.849Z,85.61
2022-12-18T05:00:36.196Z,85.60
2022-12-18T05:03:03.577Z,85.92
2022-12-18T05:05:30.307Z,85.81
2022-12-18T05:07:56.957Z,85.79
2022-12-18T05:10:23.690Z,85.71
2022-12-18T05:13:00.997Z,85.94
2022-12-18T05:15:32.185Z,86.10
2022-12-18T05:17:59.963Z,86.21
2022-12-18T05:20:27.344Z,86.29
2022-12-18T05:22:55.152Z,86.22
2022-12-18T05:25:22.567Z,86.27
2022-12-18T05:27:49.517Z,86.33
2022-12-18T05:30:17.169Z,86.33
2022-12-18T05:32:44.107Z,86.29
2022-12-18T05:35:11.846Z,86.41
2022-12-18T05:37:43.039Z,86.39
2022-12-18T05:40:10.810Z,86.47
2022-12-18T05:42:37.545Z,86.48
2022-12-18T05:45:04.735Z,86.71
2022-12-18T05:47:31.190Z,86.88
2022-12-18T05:49:57.870Z,86.82
2022-12-18T05:52:24.644Z,87.02
2022-12-18T05:54:51.144Z,87.03
2022-12-18T05:57:17.724Z,86.93
2022-12-18T05:59:44.752Z,86.52
2022-12-18T06:02:11.345Z,86.86
2022-12-18T06:04:37.916Z,86.90
2022-12-18T06:07:04.556Z,86.90
2022-12-18T06:09:31.047Z,86.91
2022-12-18T06:11:57.589Z,87.17
2022-12-18T06:14:24.069Z,86.86
2022-12-18T06:16:52.768Z,86.65
2022-12-18T06:19:19.344Z,86.43
2022-12-18T06:21:46.723Z,86.27
2022-12-18T06:24:13.327Z,86.53
2022-12-18T06:26:40.194Z,86.39
2022-12-18T06:29:07.007Z,86.00
2022-12-18T06:31:33.661Z,85.83
2022-12-18T06:34:03.588Z,86.22
2022-12-18T06:36:30.635Z,86.23
2022-12-18T06:38:57.606Z,86.17
2022-12-18T06:41:24.739Z,86.34
2022-12-18T06:43:52.835Z,86.51
2022-12-18T06:46:21.405Z,86.64
2022-12-18T06:48:49.956Z,86.60
2022-12-18T06:51:21.054Z,86.76
2022-12-18T06:53:48.011Z,86.80
2022-12-18T06:56:15.023Z,86.63
2022-12-18T06:58:41.877Z,86.61
2022-12-18T07:01:11.464Z,86.32
2022-12-18T07:03:39.382Z,86.42
2022-12-18T07:06:07.009Z,86.49
2022-12-18T07:08:33.704Z,86.65
2022-12-18T07:11:00.437Z,86.58
2022-12-18T07:13:27.744Z,86.79
2022-12-18T07:15:54.259Z,86.73
2022-12-18T07:18:20.855Z,86.79
2022-12-18T07:20:47.723Z,86.58
2022-12-18T07:23:14.757Z,86.67
2022-12-18T07:25:41.350Z,86.54
2022-12-18T07:28:10.594Z,86.25
2022-12-18T07:32:36.067Z,86.40
2022-12-18T07:35:02.711Z,86.60
2022-12-18T07:37:29.295Z,86.71
2022-12-18T07:39:55.922Z,86.80
2022-12-18T07:42:31.517Z,86.73
2022-12-18T07:45:02.111Z,86.64
2022-12-18T07:47:29.486Z,86.60
2022-12-18T07:49:57.224Z,86.44
2022-12-18T07:52:26.188Z,86.37
2022-12-18T07:54:53.122Z,85.95
2022-12-18T07:57:48.497Z,85.70
2022-12-18T08:00:06.902Z,85.09
2022-12-18T08:02:33.550Z,84.61
2022-12-18T08:05:01.216Z,83.98
2022-12-18T08:07:27.652Z,83.73
2022-12-18T08:09:54.099Z,83.04
2022-12-18T08:12:20.610Z,82.57
2022-12-18T08:14:47.122Z,82.24
2022-12-18T08:17:13.591Z,81.89
2022-12-18T08:19:40.437Z,81.43
2022-12-18T08:22:07.002Z,81.01
2022-12-18T08:24:33.477Z,80.92
2022-12-18T08:27:20.913Z,80.82
2022-12-18T08:29:46.504Z,80.29
2022-12-18T08:32:13.274Z,80.00
2022-12-18T08:34:39.823Z,79.68
2022-12-18T08:37:06.370Z,79.55
2022-12-18T08:39:33.041Z,80.03
2022-12-18T08:42:25.419Z,79.40
2022-12-18T08:44:51.855Z,78.52
2022-12-18T08:47:18.397Z,78.92
2022-12-18T08:49:44.907Z,78.40
2022-12-18T08:52:12.087Z,78.80
2022-12-18T08:54:38.564Z,78.78
2022-12-18T08:57:05.384Z,78.26
2022-12-18T08:59:31.906Z,77.67
2022-12-18T09:01:58.395Z,76.59
2022-12-18T09:04:24.973Z,76.54
2022-12-18T09:06:51.558Z,75.56
2022-12-18T09:09:18.030Z,75.05
2022-12-18T09:11:44.565Z,74.47
2022-12-18T09:14:11.903Z,75.43
2022-12-18T09:16:38.460Z,75.35
2022-12-18T09:19:06.460Z,75.99
2022-12-18T09:21:35.998Z,76.16
2022-12-18T09:24:04.544Z,76.51
2022-12-18T09:26:33.500Z,76.54
2022-12-18T09:28:59.975Z,76.41
2022-12-18T09:31:26.630Z,75.37
2022-12-18T09:33:53.335Z,74.82
2022-12-18T09:36:20.189Z,74.90
2022-12-18T09:38:48.575Z,74.09
2022-12-18T09:41:23.928Z,73.46
2022-12-18T09:43:58.160Z,73.76
2022-12-18T09:46:31.446Z,73.35
2022-12-18T09:49:03.702Z,73.62
2022-12-18T09:51:38.392Z,73.19
2022-12-18T09:54:11.998Z,73.16
2022-12-18T09:56:42.419Z,72.77
2022-12-18T09:59:21.581Z,72.26
2022-12-18T10:01:48.190Z,71.61
2022-12-18T10:04:18.000Z,71.85
2022-12-18T10:07:09.555Z,72.02
2022-12-18T10:09:54.700Z,71.39
2022-12-18T10:12:33.699Z,71.24
2022-12-18T10:15:23.525Z,70.73
2022-12-18T10:18:09.129Z,70.28
2022-12-18T10:20:39.704Z,70.22
2022-12-18T10:23:26.472Z,70.31
2022-12-18T10:26:10.600Z,69.41
2022-12-18T10:28:40.568Z,68.98
2022-12-18T10:31:19.609Z,68.88
2022-12-18T10:33:47.477Z,68.54
2022-12-18T10:36:14.325Z,68.92
2022-12-18T10:38:45.401Z,66.78
2022-12-18T10:41:26.893Z,67.21
2022-12-18T10:44:12.519Z,67.67
2022-12-18T10:46:39.810Z,67.68
2022-12-18T10:49:06.914Z,67.42
2022-12-18T10:51:39.470Z,67.55
2022-12-18T10:54:06.353Z,67.67
2022-12-18T10:56:37.549Z,67.26
2022-12-18T10:59:09.886Z,67.18
2022-12-18T11:01:59.326Z,67.44
2022-12-18T11:04:31.171Z,67.16
2022-12-18T11:07:04.085Z,67.29
2022-12-18T11:09:36.634Z,67.53
2022-12-18T11:12:23.720Z,67.18
2022-12-18T11:14:53.156Z,67.38
2022-12-18T11:17:33.323Z,67.15
2022-12-18T11:20:10.315Z,66.94
2022-12-18T11:22:39.143Z,66.94
2022-12-18T11:25:35.992Z,66.93
2022-12-18T11:28:21.505Z,66.79
2022-12-18T11:30:48.314Z,66.41
2022-12-18T11:33:22.703Z,66.70
2022-12-18T11:35:53.550Z,66.78
2022-12-18T11:38:30.106Z,66.25
2022-12-18T11:41:24.405Z,67.17
2022-12-18T11:44:11.054Z,67.26
2022-12-18T11:46:50.544Z,67.23
2022-12-18T11:49:27.949Z,67.08
2022-12-18T12:00:06.520Z,68.16
2022-12-18T12:02:42.164Z,68.04
2022-12-18T12:05:30.365Z,68.32
2022-12-18T12:08:42.105Z,68.31
2022-12-18T12:11:17.586Z,68.38
2022-12-18T12:14:05.574Z,68.75
2022-12-18T12:16:44.302Z,68.58
2022-12-18T12:19:37.988Z,68.85
2022-12-18T12:22:14.539Z,68.80
2022-12-18T12:25:12.190Z,69.00
2022-12-18T12:28:03.788Z,69.21
2022-12-18T12:30:48.274Z,69.38
2022-12-18T12:33:47.321Z,69.28
2022-12-18T12:36:26.185Z,69.31
2022-12-18T12:38:57.258Z,69.41
2022-12-18T12:41:47.286Z,69.35
2022-12-18T12:44:24.819Z,69.70
2022-12-18T12:47:00.975Z,69.41
2022-12-18T12:49:36.313Z,69.21
2022-12-18T12:52:16.053Z,69.56
2022-12-18T12:54:43.841Z,69.59
2022-12-18T12:57:34.406Z,69.50
2022-12-18T13:00:16.658Z,69.53
2022-12-18T13:03:01.832Z,69.34
2022-12-18T13:05:44.059Z,69.40
2022-12-18T13:08:12.642Z,69.59
2022-12-18T13:10:44.189Z,69.27
2022-12-18T13:13:23.794Z,69.60
2022-12-18T13:16:11.821Z,69.38
2022-12-18T13:18:38.978Z,69.28
2022-12-18T13:21:21.417Z,69.52
2022-12-18T13:23:48.659Z,69.65
2022-12-18T13:26:23.258Z,69.80
2022-12-18T13:28:55.382Z,69.73
2022-12-18T13:31:40.319Z,69.52
2022-12-18T13:34:27.828Z,69.21
2022-12-18T13:36:56.898Z,68.89
2022-12-18T13:39:30.292Z,69.18
2022-12-18T13:42:08.451Z,69.59
2022-12-18T13:44:43.105Z,69.49
2022-12-18T13:47:45.317Z,69.47
2022-12-18T13:50:29.852Z,69.56
2022-12-18T13:53:03.352Z,69.34
2022-12-18T13:55:30.244Z,69.27
2022-12-18T13:58:19.034Z,69.34
2022-12-18T14:00:46.621Z,69.53
2022-12-18T14:03:31.902Z,69.19
2022-12-18T14:06:06.947Z,69.33
2022-12-18T14:08:40.921Z,69.41
2022-12-18T14:11:18.330Z,69.42
2022-12-18T14:13:47.544Z,69.67
2022-12-18T14:16:17.641Z,69.73
2022-12-18T14:18:48.973Z,69.59
2022-12-18T14:21:27.999Z,69.85
2022-12-18T14:24:06.162Z,69.87
2022-12-18T14:26:34.231Z,69.72
2022-12-18T14:29:26.426Z,69.79
2022-12-18T14:32:09.386Z,69.89
2022-12-18T14:34:38.406Z,70.27
2022-12-18T14:37:05.236Z,70.20
2022-12-18T14:39:31.796Z,70.14
2022-12-18T14:41:58.254Z,70.06
2022-12-18T14:44:25.350Z,70.31
2022-12-18T14:46:54.472Z,70.23
2022-12-18T14:49:24.427Z,70.08
2022-12-18T14:51:54.311Z,70.04
2022-12-18T14:54:21.989Z,70.09
2022-12-18T14:56:51.895Z,70.08
2022-12-18T14:59:24.868Z,70.05
2022-12-18T15:01:54.636Z,70.00
2022-12-18T15:04:36.665Z,69.84
2022-12-18T15:07:22.078Z,69.82
2022-12-18T15:10:02.695Z,69.76
2022-12-18T15:13:00.612Z,69.90
2022-12-18T15:15:39.111Z,70.26
2022-12-18T15:18:08.448Z,69.90
2022-12-18T15:20:43.348Z,70.05
2022-12-18T15:23:25.077Z,70.06
2022-12-18T15:25:59.827Z,69.95
2022-12-18T15:28:28.999Z,69.84
2022-12-18T15:31:03.521Z,69.80
2022-12-18T15:33:46.968Z,69.85
2022-12-18T15:36:16.587Z,70.27
2022-12-18T15:38:51.316Z,70.13
2022-12-18T15:41:24.478Z,70.24
2022-12-18T15:43:53.308Z,70.42
2022-12-18T15:46:23.783Z,70.83
2022-12-18T15:49:01.172Z,70.77
2022-12-18T15:51:35.639Z,70.81
2022-12-18T15:54:08.906Z,71.12
2022-12-18T15:56:53.880Z,71.08
2022-12-18T15:59:21.932Z,71.21
2022-12-18T16:01:51.547Z,71.42
2022-12-18T16:04:21.494Z,71.92
2022-12-18T16:07:13.977Z,71.86
2022-12-18T16:09:36.005Z,72.17
2022-12-18T16:12:03.176Z,72.33
2022-12-18T16:14:30.996Z,72.50
2022-12-18T16:17:03.033Z,72.74
2022-12-18T16:19:30.562Z,72.90
2022-12-18T16:21:58.640Z,73.28
2022-12-18T16:24:27.997Z,73.31
2022-12-18T16:26:54.973Z,73.57
2022-12-18T16:29:25.653Z,73.70
2022-12-18T16:31:52.990Z,73.79
2022-12-18T16:34:28.872Z,73.89
2022-12-18T16:37:03.119Z,74.14
2022-12-18T16:39:31.805Z,74.27
2022-12-18T16:41:58.690Z,74.35
2022-12-18T16:44:25.943Z,74.50
2022-12-18T16:46:52.481Z,74.47
2022-12-18T16:49:20.154Z,74.75
2022-12-18T16:51:47.575Z,74.80
2022-12-18T16:54:18.837Z,74.78
2022-12-18T16:56:47.809Z,75.03
2022-12-18T16:59:14.283Z,74.93
2022-12-18T17:01:41.889Z,75.00
2022-12-18T17:04:09.533Z,75.03
2022-12-18T17:06:41.604Z,75.11
2022-12-18T17:09:12.927Z,75.13
2022-12-18T17:11:39.329Z,75.04
2022-12-18T17:14:07.979Z,75.24
2022-12-18T17:16:34.503Z,75.34
2022-12-18T17:19:01.758Z,75.48
2022-12-18T17:21:28.757Z,75.52
2022-12-18T17:23:55.308Z,75.67
2022-12-18T17:26:21.738Z,75.41
2022-12-18T17:28:48.232Z,75.50
2022-12-18T17:31:18.972Z,75.53
2022-12-18T17:33:46.524Z,75.64
2022-12-18T17:36:13.407Z,75.80
2022-12-18T17:38:43.236Z,75.68
2022-12-18T17:41:11.359Z,75.77
2022-12-18T17:43:45.889Z,75.90
2022-12-18T17:46:14.728Z,76.07
2022-12-18T17:48:41.645Z,75.92
2022-12-18T17:51:11.929Z,75.85
2022-12-18T17:53:39.708Z,75.97
2022-12-18T17:56:09.801Z,76.15
2022-12-18T17:58:37.136Z,76.13
2022-12-18T18:01:04.392Z,76.19
2022-12-18T18:03:34.080Z,76.16
2022-12-18T18:06:01.995Z,76.27
2022-12-18T18:08:28.834Z,76.33
2022-12-18T18:11:16.450Z,76.21
2022-12-18T18:14:01.093Z,76.33
2022-12-18T18:16:41.465Z,76.30
2022-12-18T18:19:11.060Z,76.19
2022-12-18T18:21:43.275Z,76.26
2022-12-18T18:24:12.676Z,76.26
2022-12-18T18:26:41.390Z,76.25
2022-12-18T18:29:17.102Z,76.31
2022-12-18T18:31:43.787Z,76.18
2022-12-18T18:34:18.811Z,76.33
2022-12-18T18:36:46.206Z,76.38
2022-12-18T18:39:13.838Z,76.24
2022-12-18T18:41:40.506Z,76.29
2022-12-18T18:44:10.368Z,76.39
2022-12-18T18:46:36.846Z,76.34
2022-12-18T18:49:03.344Z,76.33
2022-12-18T18:51:34.671Z,76.31
2022-12-18T18:57:35.950Z,76.46
2022-12-18T19:00:02.892Z,76.45
2022-12-18T19:02:29.533Z,76.35
2022-12-18T19:04:59.570Z,76.40
2022-12-18T19:07:30.531Z,76.48
2022-12-18T19:10:04.035Z,76.42
2022-12-18T19:12:50.358Z,76.34
2022-12-18T19:15:16.871Z,76.24
2022-12-18T19:17:44.774Z,76.36
2022-12-18T19:20:14.325Z,76.32
2022-12-18T19:22:40.958Z,76.17
2022-12-18T19:25:09.288Z,76.18
2022-12-18T19:27:38.918Z,75.92
2022-12-18T19:30:05.952Z,75.92
2022-12-18T19:32:33.669Z,75.94
2022-12-18T19:35:00.273Z,75.94
2022-12-18T19:37:27.416Z,75.97
2022-12-18T19:39:54.903Z,75.90
2022-12-18T19:42:28.212Z,75.81
2022-12-18T19:44:55.923Z,75.66
2022-12-18T19:47:22.347Z,75.66
2022-12-18T19:49:51.077Z,75.60
2022-12-18T19:52:17.508Z,75.53
2022-12-18T19:54:43.926Z,75.38
2022-12-18T19:57:11.682Z,75.42
2022-12-18T19:59:38.281Z,75.34
2022-12-18T20:02:05.954Z,75.31
2022-12-18T20:04:32.714Z,75.33
2022-12-18T20:06:59.153Z,75.45
2022-12-18T20:09:26.491Z,75.51
2022-12-18T20:11:54.231Z,75.45
2022-12-18T20:14:23.243Z,75.51
2022-12-18T20:16:52.256Z,75.52
2022-12-18T20:19:19.248Z,75.49
2022-12-18T20:21:46.247Z,75.66
2022-12-18T20:24:12.883Z,75.45
2022-12-18T20:26:40.544Z,75.32
2022-12-18T20:29:07.548Z,75.33
2022-12-18T20:31:34.163Z,75.31
2022-12-18T20:34:01.687Z,75.43
2022-12-18T20:36:31.665Z,75.32
2022-12-18T20:39:00.417Z,75.50
2022-12-18T20:41:37.540Z,75.39
2022-12-18T20:44:12.785Z,75.41
2022-12-18T20:46:55.361Z,75.19
2022-12-18T20:49:23.532Z,75.19
2022-12-18T20:51:51.788Z,75.23
2022-12-18T20:54:18.174Z,75.16
2022-12-18T20:56:44.576Z,75.16
2022-12-18T20:59:14.103Z,75.20
2022-12-18T21:01:45.261Z,75.36
2022-12-18T21:04:15.311Z,75.08
2022-12-18T21:06:50.822Z,75.01
2022-12-18T21:09:18.268Z,75.11
2022-12-18T21:12:03.195Z,75.23
2022-12-18T21:14:30.928Z,75.43
2022-12-18T21:16:57.893Z,75.27
2022-12-18T21:19:27.036Z,75.17
2022-12-18T21:21:55.049Z,75.31
2022-12-18T21:24:22.008Z,75.06
2022-12-18T21:26:49.490Z,75.01
2022-12-18T21:29:21.852Z,74.80
2022-12-18T21:31:49.238Z,74.85
2022-12-18T21:34:21.683Z,75.26
2022-12-18T21:36:49.381Z,75.72
2022-12-18T21:39:16.778Z,75.95
2022-12-18T21:42:02.211Z,76.16
2022-12-18T21:44:29.505Z,76.53
2022-12-18T21:47:02.403Z,76.82
2022-12-18T21:49:33.265Z,77.51
2022-12-18T21:52:03.557Z,78.15
2022-12-18T21:54:30.379Z,78.37
2022-12-18T21:57:01.751Z,78.67
2022-12-18T21:59:31.634Z,79.05
2022-12-18T22:02:00.798Z,79.75
2022-12-18T22:04:28.683Z,80.41
2022-12-18T22:06:56.416Z,80.87
2022-12-18T22:09:24.280Z,81.20
2022-12-18T22:11:51.761Z,81.36
2022-12-18T22:14:20.520Z,82.40
2022-12-18T22:16:47.676Z,82.70
2022-12-18T22:19:15.126Z,83.16
2022-12-18T22:21:47.096Z,83.64
2022-12-18T22:24:15.328Z,84.10
2022-12-18T22:26:45.029Z,84.02
2022-12-18T22:29:36.974Z,83.89
2022-12-18T22:32:04.918Z,84.22
2022-12-18T22:34:36.332Z,84.26
2022-12-18T22:37:03.386Z,84.77
2022-12-18T22:39:30.595Z,84.64
2022-12-18T22:41:58.357Z,84.65
2022-12-18T22:44:24.847Z,84.80
2022-12-18T22:47:03.540Z,84.68
2022-12-18T22:49:32.475Z,84.84
2022-12-18T22:52:01.565Z,84.98
2022-12-18T22:54:27.976Z,85.46
2022-12-18T22:56:54.455Z,85.36
2022-12-18T22:59:23.448Z,85.78
2022-12-18T23:01:52.912Z,85.80
2022-12-18T23:04:23.526Z,86.09
2022-12-18T23:06:53.782Z,86.18
2022-12-18T23:09:20.634Z,86.00
2022-12-18T23:11:48.631Z,86.04
2022-12-18T23:14:15.752Z,85.91
2022-12-18T23:16:42.412Z,86.07
2022-12-18T23:19:12.987Z,85.87
2022-12-18T23:21:39.538Z,85.83
2022-12-18T23:24:06.514Z,85.94
2022-12-18T23:26:33.072Z,85.89
2022-12-18T23:29:01.394Z,86.02
2022-12-18T23:31:30.544Z,86.03
2022-12-18T23:33:59.294Z,86.07
2022-12-18T23:36:26.824Z,86.24
2022-12-18T23:38:56.060Z,86.48
2022-12-18T23:41:24.915Z,86.93
2022-12-18T23:43:52.473Z,86.87
2022-12-18T23:46:20.586Z,87.11
2022-12-18T23:48:48.158Z,87.16
2022-12-18T23:51:16.883Z,87.23
2022-12-18T23:53:46.449Z,87.08
2022-12-18T23:56:13.777Z,86.84
2022-12-18T23:58:42.156Z,87.12
